ON, British Columbia

12:37 PM PST on January 17, 2017 (GMT -0800)
Prince Rupert | | Change Station

Elev 115 ft 54.29 °N, 130.44 °W | Updated 37 minutes ago

Light Rain
Light Rain
43 °F
Feels Like 40 °F
N
5
Wind Variable Wind from ENE

Today
High -- | Low -- °F
--% Chance of Precip.
Yesterday
High -- | Low -- °F
Precip. -- in
Pressure 29.07 in
Visibility 9.0 miles
Clouds Overcast 4400 ft
Windchill 40 °F
Dew Point 43 °F
Humidity 100%
Rainfall 0.00 in
Snow Depth Not available.
8:51 AM 4:53 PM
Waning Gibbous, 70% visible
METAR CYPR 172000Z AUTO 06004KT 9SM -RA OVC044 06/06 A2906 RMK SLP844
Pressure 29.07 in
Visibility 9.0 miles
Clouds Overcast 4400 ft
Windchill 40 °F
Dew Point 43 °F
Humidity 100%
Rainfall 0.00 in
Snow Depth Not available.
8:51 AM 4:53 PM
Waning Gibbous, 70% visible
METAR CYPR 172000Z AUTO 06004KT 9SM -RA OVC044 06/06 A2906 RMK SLP844

Get Your Daily Forecast Email!

Thanks for signing up!

Be on the lookout for a verification email in your inbox.

You'll start receiving the daily forecast at 8 AM.

×

10-Day Weather Forecast

Almanac

Astronomy

Jan. 17, 2017 Rise Set
Actual Time
Civil Twilight
Nautical Twilight
Astronomical Twilight
Moon
Length of Visible Light
Length of Day
Tomorrow will be .
, % of the Moon is Illuminated

Today's Extremes

Country Highs Country Lows

Community

WunderPhotos

Upload Photos

1,962,540 photos uploaded!

WunderBlog® & News

Nearby

Air Quality

  Air Quality AQ Index Pollutant
Not available.

Snow Depth

Station Depth Elevation

Earthquake Activity

City Distance Mag. Time & Date
Minimum magnitude displayed is 2.5.

Coastal Water Temperatures

Place Temperature

Stations

Nearby Weather Stations

Station Location Temp. Windchill Dew Point Humidity Wind Precip. Elev Updated Type
                   

Watches & Warnings

There are currently no watches in effect.